sensor_id;sensor_type;location;lat;lon;timestamp;temperature;humidity
11573;DHT22;5842;52.426;4.886;2022-10-31T00:00:26;11.10;99.90
11573;DHT22;5842;52.426;4.886;2022-10-31T00:02:53;11.20;99.90
11573;DHT22;5842;52.426;4.886;2022-10-31T00:05:21;11.10;99.90
11573;DHT22;5842;52.426;4.886;2022-10-31T00:07:51;11.20;99.90
11573;DHT22;5842;52.426;4.886;2022-10-31T00:10:18;11.10;99.90
11573;DHT22;5842;52.426;4.886;2022-10-31T00:12:46;11.20;99.90
11573;DHT22;5842;52.426;4.886;2022-10-31T00:15:14;11.20;99.90
11573;DHT22;5842;52.426;4.886;2022-10-31T00:17:42;11.30;99.90
11573;DHT22;5842;52.426;4.886;2022-10-31T00:20:09;11.30;99.90
11573;DHT22;5842;52.426;4.886;2022-10-31T00:22:37;11.30;99.90
11573;DHT22;5842;52.426;4.886;2022-10-31T00:25:04;11.20;99.90
11573;DHT22;5842;52.426;4.886;2022-10-31T00:27:31;11.20;99.90
11573;DHT22;5842;52.426;4.886;2022-10-31T00:29:58;11.20;99.90
11573;DHT22;5842;52.426;4.886;2022-10-31T00:32:28;11.20;99.90
11573;DHT22;5842;52.426;4.886;2022-10-31T00:34:55;11.20;99.90
11573;DHT22;5842;52.426;4.886;2022-10-31T00:37:23;11.20;99.90
11573;DHT22;5842;52.426;4.886;2022-10-31T00:39:50;11.20;99.90
11573;DHT22;5842;52.426;4.886;2022-10-31T00:42:17;11.20;99.90
11573;DHT22;5842;52.426;4.886;2022-10-31T00:44:44;11.20;99.90
11573;DHT22;5842;52.426;4.886;2022-10-31T00:47:14;11.30;99.90
11573;DHT22;5842;52.426;4.886;2022-10-31T00:49:43;11.20;99.90
11573;DHT22;5842;52.426;4.886;2022-10-31T00:52:10;11.20;99.90
11573;DHT22;5842;52.426;4.886;2022-10-31T00:57:04;11.10;99.90
11573;DHT22;5842;52.426;4.886;2022-10-31T00:59:31;11.00;99.90
11573;DHT22;5842;52.426;4.886;2022-10-31T01:01:58;11.00;99.90
11573;DHT22;5842;52.426;4.886;2022-10-31T01:04:25;11.00;99.90
11573;DHT22;5842;52.426;4.886;2022-10-31T01:06:54;11.00;99.90
11573;DHT22;5842;52.426;4.886;2022-10-31T01:09:21;10.90;99.90
11573;DHT22;5842;52.426;4.886;2022-10-31T01:11:48;10.90;99.90
11573;DHT22;5842;52.426;4.886;2022-10-31T01:14:16;10.90;99.90
11573;DHT22;5842;52.426;4.886;2022-10-31T01:16:43;10.90;99.90
11573;DHT22;5842;52.426;4.886;2022-10-31T01:19:10;10.90;99.90
11573;DHT22;5842;52.426;4.886;2022-10-31T01:21:37;10.90;99.90
11573;DHT22;5842;52.426;4.886;2022-10-31T01:24:07;10.90;99.90
11573;DHT22;5842;52.426;4.886;2022-10-31T01:26:35;10.90;99.90
11573;DHT22;5842;52.426;4.886;2022-10-31T01:29:05;10.80;99.90
11573;DHT22;5842;52.426;4.886;2022-10-31T01:31:33;10.90;99.90
11573;DHT22;5842;52.426;4.886;2022-10-31T01:34:00;10.80;99.90
11573;DHT22;5842;52.426;4.886;2022-10-31T01:36:29;10.80;99.90
11573;DHT22;5842;52.426;4.886;2022-10-31T01:38:58;10.80;99.90
11573;DHT22;5842;52.426;4.886;2022-10-31T01:41:31;10.80;99.90
11573;DHT22;5842;52.426;4.886;2022-10-31T01:44:00;10.80;99.90
11573;DHT22;5842;52.426;4.886;2022-10-31T01:46:29;10.70;99.90
11573;DHT22;5842;52.426;4.886;2022-10-31T01:49:00;10.70;99.90
11573;DHT22;5842;52.426;4.886;2022-10-31T01:54:02;10.60;99.90
11573;DHT22;5842;52.426;4.886;2022-10-31T01:56:32;10.60;99.90
11573;DHT22;5842;52.426;4.886;2022-10-31T01:59:02;10.50;99.90
11573;DHT22;5842;52.426;4.886;2022-10-31T02:01:31;10.50;99.90
11573;DHT22;5842;52.426;4.886;2022-10-31T02:03:59;10.50;99.90
11573;DHT22;5842;52.426;4.886;2022-10-31T02:06:32;10.50;99.90
11573;DHT22;5842;52.426;4.886;2022-10-31T02:09:00;10.50;99.90
11573;DHT22;5842;52.426;4.886;2022-10-31T02:11:31;10.40;99.90
11573;DHT22;5842;52.426;4.886;2022-10-31T02:14:00;10.40;99.90
11573;DHT22;5842;52.426;4.886;2022-10-31T02:16:28;10.40;99.90
11573;DHT22;5842;52.426;4.886;2022-10-31T02:18:56;10.40;99.90
11573;DHT22;5842;52.426;4.886;2022-10-31T02:21:26;10.40;99.90
11573;DHT22;5842;52.426;4.886;2022-10-31T02:27:09;10.50;99.90
11573;DHT22;5842;52.426;4.886;2022-10-31T02:35:37;10.40;99.90
11573;DHT22;5842;52.426;4.886;2022-10-31T02:38:13;10.30;99.90
11573;DHT22;5842;52.426;4.886;2022-10-31T02:40:48;10.30;99.90
11573;DHT22;5842;52.426;4.886;2022-10-31T02:43:20;10.20;99.90
11573;DHT22;5842;52.426;4.886;2022-10-31T02:45:51;10.20;99.90
11573;DHT22;5842;52.426;4.886;2022-10-31T02:48:26;10.20;99.90
11573;DHT22;5842;52.426;4.886;2022-10-31T02:50:57;10.20;99.90
11573;DHT22;5842;52.426;4.886;2022-10-31T02:53:26;10.20;99.90
11573;DHT22;5842;52.426;4.886;2022-10-31T02:56:01;10.10;99.90
11573;DHT22;5842;52.426;4.886;2022-10-31T02:58:33;10.10;99.90
11573;DHT22;5842;52.426;4.886;2022-10-31T03:01:22;10.10;99.90
11573;DHT22;5842;52.426;4.886;2022-10-31T03:04:06;10.10;99.90
11573;DHT22;5842;52.426;4.886;2022-10-31T03:06:43;10.10;99.90
11573;DHT22;5842;52.426;4.886;2022-10-31T03:09:16;10.00;99.90
11573;DHT22;5842;52.426;4.886;2022-10-31T03:11:53;10.00;99.90
11573;DHT22;5842;52.426;4.886;2022-10-31T03:14:28;10.00;99.90
11573;DHT22;5842;52.426;4.886;2022-10-31T03:17:00;9.90;99.90
11573;DHT22;5842;52.426;4.886;2022-10-31T03:19:33;9.90;99.90
11573;DHT22;5842;52.426;4.886;2022-10-31T03:22:05;9.90;99.90
11573;DHT22;5842;52.426;4.886;2022-10-31T03:24:37;9.90;99.90
11573;DHT22;5842;52.426;4.886;2022-10-31T03:27:07;9.90;99.90
11573;DHT22;5842;52.426;4.886;2022-10-31T03:29:36;9.90;99.90
11573;DHT22;5842;52.426;4.886;2022-10-31T03:32:08;9.90;99.90
11573;DHT22;5842;52.426;4.886;2022-10-31T03:34:38;10.00;99.90
11573;DHT22;5842;52.426;4.886;2022-10-31T03:37:08;9.90;99.90
11573;DHT22;5842;52.426;4.886;2022-10-31T03:39:39;9.90;99.90
11573;DHT22;5842;52.426;4.886;2022-10-31T03:42:13;9.90;99.90
11573;DHT22;5842;52.426;4.886;2022-10-31T03:44:44;9.90;99.90
11573;DHT22;5842;52.426;4.886;2022-10-31T03:47:13;9.90;99.90
11573;DHT22;5842;52.426;4.886;2022-10-31T03:49:42;10.00;99.90
11573;DHT22;5842;52.426;4.886;2022-10-31T03:52:16;9.90;99.90
11573;DHT22;5842;52.426;4.886;2022-10-31T03:54:49;9.90;99.90
11573;DHT22;5842;52.426;4.886;2022-10-31T03:57:24;9.90;99.90
11573;DHT22;5842;52.426;4.886;2022-10-31T03:59:55;9.80;99.90
11573;DHT22;5842;52.426;4.886;2022-10-31T04:02:28;9.80;99.90
11573;DHT22;5842;52.426;4.886;2022-10-31T04:04:58;9.80;99.90
11573;DHT22;5842;52.426;4.886;2022-10-31T04:07:29;9.70;99.90
11573;DHT22;5842;52.426;4.886;2022-10-31T04:10:00;9.70;99.90
11573;DHT22;5842;52.426;4.886;2022-10-31T04:12:29;9.70;99.90
11573;DHT22;5842;52.426;4.886;2022-10-31T04:17:28;9.50;99.90
11573;DHT22;5842;52.426;4.886;2022-10-31T04:20:00;9.50;99.90
11573;DHT22;5842;52.426;4.886;2022-10-31T04:22:28;9.40;99.90
11573;DHT22;5842;52.426;4.886;2022-10-31T04:24:55;9.40;99.90
11573;DHT22;5842;52.426;4.886;2022-10-31T04:27:22;9.30;99.90
11573;DHT22;5842;52.426;4.886;2022-10-31T04:32:16;9.20;99.90
11573;DHT22;5842;52.426;4.886;2022-10-31T04:34:44;9.20;99.90
11573;DHT22;5842;52.426;4.886;2022-10-31T04:37:12;9.20;99.90
11573;DHT22;5842;52.426;4.886;2022-10-31T04:39:39;9.10;99.90
11573;DHT22;5842;52.426;4.886;2022-10-31T04:42:08;9.10;99.90
11573;DHT22;5842;52.426;4.886;2022-10-31T04:44:35;9.00;99.90
11573;DHT22;5842;52.426;4.886;2022-10-31T04:47:03;9.00;99.90
11573;DHT22;5842;52.426;4.886;2022-10-31T04:51:57;8.90;99.90
11573;DHT22;5842;52.426;4.886;2022-10-31T04:54:26;8.90;99.90
11573;DHT22;5842;52.426;4.886;2022-10-31T04:56:53;8.80;99.90
11573;DHT22;5842;52.426;4.886;2022-10-31T04:59:20;8.80;99.90
11573;DHT22;5842;52.426;4.886;2022-10-31T05:01:47;8.80;99.90
11573;DHT22;5842;52.426;4.886;2022-10-31T05:04:14;8.80;99.90
11573;DHT22;5842;52.426;4.886;2022-10-31T05:06:41;8.80;99.90
11573;DHT22;5842;52.426;4.886;2022-10-31T05:09:08;8.80;99.90
11573;DHT22;5842;52.426;4.886;2022-10-31T05:11:37;8.70;99.90
11573;DHT22;5842;52.426;4.886;2022-10-31T05:14:05;8.70;99.90
11573;DHT22;5842;52.426;4.886;2022-10-31T05:16:32;8.70;99.90
11573;DHT22;5842;52.426;4.886;2022-10-31T05:18:59;8.70;99.90
11573;DHT22;5842;52.426;4.886;2022-10-31T05:21:26;8.60;99.90
11573;DHT22;5842;52.426;4.886;2022-10-31T05:23:53;8.60;99.90
11573;DHT22;5842;52.426;4.886;2022-10-31T05:26:20;8.60;99.90
11573;DHT22;5842;52.426;4.886;2022-10-31T05:28:49;8.60;99.90
11573;DHT22;5842;52.426;4.886;2022-10-31T05:31:16;8.60;99.90
11573;DHT22;5842;52.426;4.886;2022-10-31T05:33:43;8.50;99.90
11573;DHT22;5842;52.426;4.886;2022-10-31T05:36:10;8.50;99.90
11573;DHT22;5842;52.426;4.886;2022-10-31T05:38:37;8.50;99.90
11573;DHT22;5842;52.426;4.886;2022-10-31T05:41:05;8.40;99.90
11573;DHT22;5842;52.426;4.886;2022-10-31T05:43:32;8.40;99.90
11573;DHT22;5842;52.426;4.886;2022-10-31T05:46:00;8.50;99.90
11573;DHT22;5842;52.426;4.886;2022-10-31T05:48:27;8.50;99.90
11573;DHT22;5842;52.426;4.886;2022-10-31T05:50:54;8.60;99.90
11573;DHT22;5842;52.426;4.886;2022-10-31T05:53:21;8.80;99.90
11573;DHT22;5842;52.426;4.886;2022-10-31T05:55:49;8.80;99.90
11573;DHT22;5842;52.426;4.886;2022-10-31T05:58:16;8.90;99.90
11573;DHT22;5842;52.426;4.886;2022-10-31T06:00:43;9.00;99.90
11573;DHT22;5842;52.426;4.886;2022-10-31T06:03:11;9.00;99.90
11573;DHT22;5842;52.426;4.886;2022-10-31T06:05:39;9.00;99.90
11573;DHT22;5842;52.426;4.886;2022-10-31T06:08:06;9.00;99.90
11573;DHT22;5842;52.426;4.886;2022-10-31T06:10:33;8.90;99.90
11573;DHT22;5842;52.426;4.886;2022-10-31T06:13:00;8.80;99.90
11573;DHT22;5842;52.426;4.886;2022-10-31T06:15:27;8.80;99.90
11573;DHT22;5842;52.426;4.886;2022-10-31T06:17:59;8.70;99.90
11573;DHT22;5842;52.426;4.886;2022-10-31T06:20:27;8.60;99.90
11573;DHT22;5842;52.426;4.886;2022-10-31T06:22:57;8.60;99.90
11573;DHT22;5842;52.426;4.886;2022-10-31T06:25:25;8.50;99.90
11573;DHT22;5842;52.426;4.886;2022-10-31T06:27:52;8.40;99.90
11573;DHT22;5842;52.426;4.886;2022-10-31T06:30:19;8.40;99.90
11573;DHT22;5842;52.426;4.886;2022-10-31T06:32:46;8.40;99.90
11573;DHT22;5842;52.426;4.886;2022-10-31T06:35:15;8.40;99.90
11573;DHT22;5842;52.426;4.886;2022-10-31T06:37:50;8.40;99.90
11573;DHT22;5842;52.426;4.886;2022-10-31T06:40:18;8.30;99.90
11573;DHT22;5842;52.426;4.886;2022-10-31T06:42:45;8.30;99.90
11573;DHT22;5842;52.426;4.886;2022-10-31T06:45:12;8.30;99.90
11573;DHT22;5842;52.426;4.886;2022-10-31T06:47:40;8.30;99.90
11573;DHT22;5842;52.426;4.886;2022-10-31T06:50:08;8.30;99.90
11573;DHT22;5842;52.426;4.886;2022-10-31T06:52:35;8.40;99.90
11573;DHT22;5842;52.426;4.886;2022-10-31T06:55:04;8.40;99.90
11573;DHT22;5842;52.426;4.886;2022-10-31T06:57:31;8.40;99.90
11573;DHT22;5842;52.426;4.886;2022-10-31T06:59:59;8.50;99.90
11573;DHT22;5842;52.426;4.886;2022-10-31T07:02:26;8.60;99.90
11573;DHT22;5842;52.426;4.886;2022-10-31T07:04:53;8.70;99.90
11573;DHT22;5842;52.426;4.886;2022-10-31T07:07:20;8.80;99.90
11573;DHT22;5842;52.426;4.886;2022-10-31T07:09:47;9.00;99.90
11573;DHT22;5842;52.426;4.886;2022-10-31T07:12:17;9.10;99.90
11573;DHT22;5842;52.426;4.886;2022-10-31T07:14:44;9.20;99.90
11573;DHT22;5842;52.426;4.886;2022-10-31T07:17:11;9.30;99.90
11573;DHT22;5842;52.426;4.886;2022-10-31T07:19:38;9.30;99.90
11573;DHT22;5842;52.426;4.886;2022-10-31T07:38:26;10.20;99.90
11573;DHT22;5842;52.426;4.886;2022-10-31T07:40:54;10.30;99.90
11573;DHT22;5842;52.426;4.886;2022-10-31T07:43:21;10.40;99.90
11573;DHT22;5842;52.426;4.886;2022-10-31T07:45:54;10.50;99.90
11573;DHT22;5842;52.426;4.886;2022-10-31T07:48:21;10.60;99.90
11573;DHT22;5842;52.426;4.886;2022-10-31T07:50:49;10.70;99.90
11573;DHT22;5842;52.426;4.886;2022-10-31T07:53:16;10.90;99.90
11573;DHT22;5842;52.426;4.886;2022-10-31T07:55:45;11.00;99.90
11573;DHT22;5842;52.426;4.886;2022-10-31T07:58:14;11.20;99.90
11573;DHT22;5842;52.426;4.886;2022-10-31T08:00:44;11.30;99.90
11573;DHT22;5842;52.426;4.886;2022-10-31T08:03:13;11.40;99.90
11573;DHT22;5842;52.426;4.886;2022-10-31T08:05:41;11.50;99.90
11573;DHT22;5842;52.426;4.886;2022-10-31T08:08:10;11.60;99.90
11573;DHT22;5842;52.426;4.886;2022-10-31T08:10:37;11.70;99.90
11573;DHT22;5842;52.426;4.886;2022-10-31T08:13:09;11.80;99.90
11573;DHT22;5842;52.426;4.886;2022-10-31T08:15:38;12.00;99.90
11573;DHT22;5842;52.426;4.886;2022-10-31T08:18:11;12.00;99.90
11573;DHT22;5842;52.426;4.886;2022-10-31T08:20:40;12.40;99.90
11573;DHT22;5842;52.426;4.886;2022-10-31T08:23:09;13.30;99.90
11573;DHT22;5842;52.426;4.886;2022-10-31T08:25:37;14.50;99.90
11573;DHT22;5842;52.426;4.886;2022-10-31T08:28:06;15.80;99.90
11573;DHT22;5842;52.426;4.886;2022-10-31T08:30:35;17.00;99.90
11573;DHT22;5842;52.426;4.886;2022-10-31T08:33:04;17.90;99.90
11573;DHT22;5842;52.426;4.886;2022-10-31T08:35:31;18.40;99.90
11573;DHT22;5842;52.426;4.886;2022-10-31T08:37:59;19.10;99.90
11573;DHT22;5842;52.426;4.886;2022-10-31T08:40:30;19.80;99.90
11573;DHT22;5842;52.426;4.886;2022-10-31T08:45:30;20.90;99.90
11573;DHT22;5842;52.426;4.886;2022-10-31T08:47:58;20.80;99.90
11573;DHT22;5842;52.426;4.886;2022-10-31T08:50:26;20.20;99.90
11573;DHT22;5842;52.426;4.886;2022-10-31T08:52:53;19.20;99.90
11573;DHT22;5842;52.426;4.886;2022-10-31T08:55:20;18.50;99.90
11573;DHT22;5842;52.426;4.886;2022-10-31T08:57:47;18.00;99.90
11573;DHT22;5842;52.426;4.886;2022-10-31T09:00:15;17.70;99.90
11573;DHT22;5842;52.426;4.886;2022-10-31T09:02:44;17.40;99.90
11573;DHT22;5842;52.426;4.886;2022-10-31T09:05:12;17.00;99.90
11573;DHT22;5842;52.426;4.886;2022-10-31T09:07:39;16.70;99.90
11573;DHT22;5842;52.426;4.886;2022-10-31T09:10:06;16.20;99.90
11573;DHT22;5842;52.426;4.886;2022-10-31T09:12:33;15.80;99.90
11573;DHT22;5842;52.426;4.886;2022-10-31T09:15:00;15.50;99.90
11573;DHT22;5842;52.426;4.886;2022-10-31T09:17:28;15.10;99.90
11573;DHT22;5842;52.426;4.886;2022-10-31T09:19:56;14.90;99.90
11573;DHT22;5842;52.426;4.886;2022-10-31T09:22:24;14.80;99.90
11573;DHT22;5842;52.426;4.886;2022-10-31T09:24:51;14.70;99.90
11573;DHT22;5842;52.426;4.886;2022-10-31T09:27:18;14.70;99.90
11573;DHT22;5842;52.426;4.886;2022-10-31T09:29:45;14.70;99.90
11573;DHT22;5842;52.426;4.886;2022-10-31T09:32:12;14.70;99.90
11573;DHT22;5842;52.426;4.886;2022-10-31T09:34:42;14.60;99.90
11573;DHT22;5842;52.426;4.886;2022-10-31T09:37:11;14.70;99.90
11573;DHT22;5842;52.426;4.886;2022-10-31T09:39:38;14.80;99.90
11573;DHT22;5842;52.426;4.886;2022-10-31T09:42:18;15.00;99.90
11573;DHT22;5842;52.426;4.886;2022-10-31T09:44:53;15.20;99.90
11573;DHT22;5842;52.426;4.886;2022-10-31T09:47:27;15.60;99.90
11573;DHT22;5842;52.426;4.886;2022-10-31T09:50:07;15.90;99.90
11573;DHT22;5842;52.426;4.886;2022-10-31T09:52:51;16.10;99.90
11573;DHT22;5842;52.426;4.886;2022-10-31T09:55:26;16.50;99.90
11573;DHT22;5842;52.426;4.886;2022-10-31T09:57:55;16.70;99.90
11573;DHT22;5842;52.426;4.886;2022-10-31T10:00:22;16.90;99.90
11573;DHT22;5842;52.426;4.886;2022-10-31T10:02:52;17.00;99.90
11573;DHT22;5842;52.426;4.886;2022-10-31T10:05:26;17.00;99.90
11573;DHT22;5842;52.426;4.886;2022-10-31T10:08:00;17.00;99.90
11573;DHT22;5842;52.426;4.886;2022-10-31T10:10:36;17.00;99.90
11573;DHT22;5842;52.426;4.886;2022-10-31T10:13:23;17.00;99.90
11573;DHT22;5842;52.426;4.886;2022-10-31T10:16:03;16.80;99.90
11573;DHT22;5842;52.426;4.886;2022-10-31T10:18:42;16.60;99.90
11573;DHT22;5842;52.426;4.886;2022-10-31T10:21:20;16.40;99.90
11573;DHT22;5842;52.426;4.886;2022-10-31T10:23:59;16.20;99.90
11573;DHT22;5842;52.426;4.886;2022-10-31T10:26:37;16.20;99.90
11573;DHT22;5842;52.426;4.886;2022-10-31T10:29:17;16.20;99.90
11573;DHT22;5842;52.426;4.886;2022-10-31T10:31:49;16.20;99.90
11573;DHT22;5842;52.426;4.886;2022-10-31T10:34:19;16.30;99.90
11573;DHT22;5842;52.426;4.886;2022-10-31T10:36:51;16.50;99.90
11573;DHT22;5842;52.426;4.886;2022-10-31T10:39:25;16.70;99.90
11573;DHT22;5842;52.426;4.886;2022-10-31T10:41:55;16.70;99.90
11573;DHT22;5842;52.426;4.886;2022-10-31T10:44:45;16.80;99.90
11573;DHT22;5842;52.426;4.886;2022-10-31T10:47:34;17.00;99.90
11573;DHT22;5842;52.426;4.886;2022-10-31T10:50:10;17.20;99.90
11573;DHT22;5842;52.426;4.886;2022-10-31T10:52:44;17.30;99.90
11573;DHT22;5842;52.426;4.886;2022-10-31T10:55:23;17.60;99.90
11573;DHT22;5842;52.426;4.886;2022-10-31T10:57:56;17.80;99.90
11573;DHT22;5842;52.426;4.886;2022-10-31T11:00:25;17.80;99.90
11573;DHT22;5842;52.426;4.886;2022-10-31T11:02:53;17.80;99.90
11573;DHT22;5842;52.426;4.886;2022-10-31T11:05:25;17.70;99.90
11573;DHT22;5842;52.426;4.886;2022-10-31T11:07:52;17.50;99.90
11573;DHT22;5842;52.426;4.886;2022-10-31T11:10:21;17.50;99.90
11573;DHT22;5842;52.426;4.886;2022-10-31T11:13:00;17.60;99.90
11573;DHT22;5842;52.426;4.886;2022-10-31T11:15:31;17.80;99.90
11573;DHT22;5842;52.426;4.886;2022-10-31T11:17:58;18.00;99.90
11573;DHT22;5842;52.426;4.886;2022-10-31T11:20:29;18.20;99.90
11573;DHT22;5842;52.426;4.886;2022-10-31T11:23:10;18.40;99.90
11573;DHT22;5842;52.426;4.886;2022-10-31T11:25:50;18.50;99.90
11573;DHT22;5842;52.426;4.886;2022-10-31T11:28:18;18.40;99.90
11573;DHT22;5842;52.426;4.886;2022-10-31T11:30:51;18.10;99.90
11573;DHT22;5842;52.426;4.886;2022-10-31T11:33:23;17.80;99.90
11573;DHT22;5842;52.426;4.886;2022-10-31T11:35:52;17.70;99.90
11573;DHT22;5842;52.426;4.886;2022-10-31T11:38:21;17.40;99.90
11573;DHT22;5842;52.426;4.886;2022-10-31T11:40:58;17.30;99.90
11573;DHT22;5842;52.426;4.886;2022-10-31T11:43:26;17.20;99.90
11573;DHT22;5842;52.426;4.886;2022-10-31T11:45:54;17.20;99.90
11573;DHT22;5842;52.426;4.886;2022-10-31T11:48:23;17.20;99.90
11573;DHT22;5842;52.426;4.886;2022-10-31T11:50:54;17.10;99.90
11573;DHT22;5842;52.426;4.886;2022-10-31T11:53:27;17.10;99.90
11573;DHT22;5842;52.426;4.886;2022-10-31T11:56:05;17.10;99.90
11573;DHT22;5842;52.426;4.886;2022-10-31T11:58:33;17.10;99.90
11573;DHT22;5842;52.426;4.886;2022-10-31T12:01:00;17.10;99.90
11573;DHT22;5842;52.426;4.886;2022-10-31T12:03:35;17.20;99.90
11573;DHT22;5842;52.426;4.886;2022-10-31T12:06:07;17.30;99.90
11573;DHT22;5842;52.426;4.886;2022-10-31T12:08:38;17.60;99.90
11573;DHT22;5842;52.426;4.886;2022-10-31T12:11:13;18.00;99.90
11573;DHT22;5842;52.426;4.886;2022-10-31T12:13:52;18.30;99.90
11573;DHT22;5842;52.426;4.886;2022-10-31T12:16:28;18.40;99.90
11573;DHT22;5842;52.426;4.886;2022-10-31T12:18:59;18.40;99.90
11573;DHT22;5842;52.426;4.886;2022-10-31T12:21:49;18.20;99.90
11573;DHT22;5842;52.426;4.886;2022-10-31T12:24:30;18.20;99.90
11573;DHT22;5842;52.426;4.886;2022-10-31T12:27:08;18.20;99.90
11573;DHT22;5842;52.426;4.886;2022-10-31T12:29:49;18.00;99.90
11573;DHT22;5842;52.426;4.886;2022-10-31T12:32:32;17.80;99.90
11573;DHT22;5842;52.426;4.886;2022-10-31T12:35:25;17.50;99.90
11573;DHT22;5842;52.426;4.886;2022-10-31T12:38:21;17.30;99.90
11573;DHT22;5842;52.426;4.886;2022-10-31T12:41:20;17.20;99.90
11573;DHT22;5842;52.426;4.886;2022-10-31T12:43:57;17.30;99.90
11573;DHT22;5842;52.426;4.886;2022-10-31T12:46:34;17.50;99.90
11573;DHT22;5842;52.426;4.886;2022-10-31T12:49:18;17.80;99.90
11573;DHT22;5842;52.426;4.886;2022-10-31T12:51:57;18.00;99.90
11573;DHT22;5842;52.426;4.886;2022-10-31T12:54:50;18.20;99.90
11573;DHT22;5842;52.426;4.886;2022-10-31T12:57:26;18.20;99.90
11573;DHT22;5842;52.426;4.886;2022-10-31T12:59:59;18.10;99.90
11573;DHT22;5842;52.426;4.886;2022-10-31T13:02:29;18.00;99.90
11573;DHT22;5842;52.426;4.886;2022-10-31T13:05:00;17.80;99.90
11573;DHT22;5842;52.426;4.886;2022-10-31T13:07:31;17.90;99.90
11573;DHT22;5842;52.426;4.886;2022-10-31T13:10:03;18.00;99.90
11573;DHT22;5842;52.426;4.886;2022-10-31T13:12:33;18.00;99.90
11573;DHT22;5842;52.426;4.886;2022-10-31T13:15:05;18.10;99.90
11573;DHT22;5842;52.426;4.886;2022-10-31T13:17:41;18.20;99.90
11573;DHT22;5842;52.426;4.886;2022-10-31T13:20:18;18.30;99.90
11573;DHT22;5842;52.426;4.886;2022-10-31T13:22:49;18.30;99.90
11573;DHT22;5842;52.426;4.886;2022-10-31T13:25:21;18.30;99.90
11573;DHT22;5842;52.426;4.886;2022-10-31T13:27:54;18.20;99.90
11573;DHT22;5842;52.426;4.886;2022-10-31T13:30:25;18.10;99.90
11573;DHT22;5842;52.426;4.886;2022-10-31T13:33:05;18.00;99.90
11573;DHT22;5842;52.426;4.886;2022-10-31T13:35:40;18.00;99.90
11573;DHT22;5842;52.426;4.886;2022-10-31T13:38:15;17.70;99.90
11573;DHT22;5842;52.426;4.886;2022-10-31T13:40:52;17.70;99.90
11573;DHT22;5842;52.426;4.886;2022-10-31T13:43:26;17.50;99.90
11573;DHT22;5842;52.426;4.886;2022-10-31T13:45:56;17.40;99.90
11573;DHT22;5842;52.426;4.886;2022-10-31T13:48:36;17.30;99.90
11573;DHT22;5842;52.426;4.886;2022-10-31T13:51:06;17.20;99.90
11573;DHT22;5842;52.426;4.886;2022-10-31T13:53:39;17.10;99.90
11573;DHT22;5842;52.426;4.886;2022-10-31T13:56:19;17.10;99.90
11573;DHT22;5842;52.426;4.886;2022-10-31T13:59:03;17.00;99.90
11573;DHT22;5842;52.426;4.886;2022-10-31T14:01:33;16.90;99.90
11573;DHT22;5842;52.426;4.886;2022-10-31T14:04:04;16.80;99.90
11573;DHT22;5842;52.426;4.886;2022-10-31T14:06:37;16.80;99.90
11573;DHT22;5842;52.426;4.886;2022-10-31T14:09:14;16.80;99.90
11573;DHT22;5842;52.426;4.886;2022-10-31T14:11:46;16.70;99.90
11573;DHT22;5842;52.426;4.886;2022-10-31T14:14:14;16.60;99.90
11573;DHT22;5842;52.426;4.886;2022-10-31T14:16:45;16.50;99.90
11573;DHT22;5842;52.426;4.886;2022-10-31T14:19:18;16.40;99.90
11573;DHT22;5842;52.426;4.886;2022-10-31T14:21:47;16.40;99.90
11573;DHT22;5842;52.426;4.886;2022-10-31T14:24:16;16.30;99.90
11573;DHT22;5842;52.426;4.886;2022-10-31T14:26:58;16.30;99.90
11573;DHT22;5842;52.426;4.886;2022-10-31T14:29:27;16.20;99.90
11573;DHT22;5842;52.426;4.886;2022-10-31T14:32:04;16.20;99.90
11573;DHT22;5842;52.426;4.886;2022-10-31T14:34:38;16.10;99.90
11573;DHT22;5842;52.426;4.886;2022-10-31T14:37:37;16.10;99.90
11573;DHT22;5842;52.426;4.886;2022-10-31T14:40:19;16.00;99.90
11573;DHT22;5842;52.426;4.886;2022-10-31T14:43:07;16.00;99.90
11573;DHT22;5842;52.426;4.886;2022-10-31T14:45:45;15.90;99.90
11573;DHT22;5842;52.426;4.886;2022-10-31T14:48:31;15.90;99.90
11573;DHT22;5842;52.426;4.886;2022-10-31T14:51:02;15.90;99.90
11573;DHT22;5842;52.426;4.886;2022-10-31T14:53:31;15.80;99.90
11573;DHT22;5842;52.426;4.886;2022-10-31T14:56:00;15.80;99.90
11573;DHT22;5842;52.426;4.886;2022-10-31T14:58:37;15.70;99.90
11573;DHT22;5842;52.426;4.886;2022-10-31T15:01:06;15.80;99.90
11573;DHT22;5842;52.426;4.886;2022-10-31T15:03:39;15.80;99.90
11573;DHT22;5842;52.426;4.886;2022-10-31T15:06:14;15.70;99.90
11573;DHT22;5842;52.426;4.886;2022-10-31T15:08:45;15.70;99.90
11573;DHT22;5842;52.426;4.886;2022-10-31T15:11:17;15.80;99.90
11573;DHT22;5842;52.426;4.886;2022-10-31T15:13:46;15.70;99.90
11573;DHT22;5842;52.426;4.886;2022-10-31T15:16:17;15.60;99.90
11573;DHT22;5842;52.426;4.886;2022-10-31T15:18:53;15.60;99.90
11573;DHT22;5842;52.426;4.886;2022-10-31T15:21:24;15.50;99.90
11573;DHT22;5842;52.426;4.886;2022-10-31T15:23:55;15.50;99.90
11573;DHT22;5842;52.426;4.886;2022-10-31T15:26:31;15.50;99.90
11573;DHT22;5842;52.426;4.886;2022-10-31T15:29:02;15.40;99.90
11573;DHT22;5842;52.426;4.886;2022-10-31T15:31:30;15.40;99.90
11573;DHT22;5842;52.426;4.886;2022-10-31T15:34:03;15.30;99.90
11573;DHT22;5842;52.426;4.886;2022-10-31T15:36:32;15.20;99.90
11573;DHT22;5842;52.426;4.886;2022-10-31T15:38:59;15.10;99.90
11573;DHT22;5842;52.426;4.886;2022-10-31T15:41:31;15.10;99.90
11573;DHT22;5842;52.426;4.886;2022-10-31T15:44:04;15.10;99.90
11573;DHT22;5842;52.426;4.886;2022-10-31T15:46:32;15.10;99.90
11573;DHT22;5842;52.426;4.886;2022-10-31T15:49:02;15.00;99.90
11573;DHT22;5842;52.426;4.886;2022-10-31T15:51:32;14.90;99.90
11573;DHT22;5842;52.426;4.886;2022-10-31T15:54:00;14.90;99.90
11573;DHT22;5842;52.426;4.886;2022-10-31T15:56:29;14.80;99.90
11573;DHT22;5842;52.426;4.886;2022-10-31T15:58:58;14.80;99.90
11573;DHT22;5842;52.426;4.886;2022-10-31T16:01:27;14.70;99.90
11573;DHT22;5842;52.426;4.886;2022-10-31T16:04:01;14.70;99.90
11573;DHT22;5842;52.426;4.886;2022-10-31T16:06:28;14.70;99.90
11573;DHT22;5842;52.426;4.886;2022-10-31T16:08:56;14.70;99.90
11573;DHT22;5842;52.426;4.886;2022-10-31T16:11:27;14.70;99.90
11573;DHT22;5842;52.426;4.886;2022-10-31T16:13:59;14.70;99.90
11573;DHT22;5842;52.426;4.886;2022-10-31T16:16:27;14.70;99.90
11573;DHT22;5842;52.426;4.886;2022-10-31T16:18:55;14.70;99.90
11573;DHT22;5842;52.426;4.886;2022-10-31T16:21:27;14.70;99.90
11573;DHT22;5842;52.426;4.886;2022-10-31T16:23:58;14.60;99.90
11573;DHT22;5842;52.426;4.886;2022-10-31T16:26:26;14.60;99.90
11573;DHT22;5842;52.426;4.886;2022-10-31T16:28:56;14.60;99.90
11573;DHT22;5842;52.426;4.886;2022-10-31T16:31:30;14.60;99.90
11573;DHT22;5842;52.426;4.886;2022-10-31T16:34:11;14.60;99.90
11573;DHT22;5842;52.426;4.886;2022-10-31T16:36:41;14.50;99.90
11573;DHT22;5842;52.426;4.886;2022-10-31T16:39:08;14.50;99.90
11573;DHT22;5842;52.426;4.886;2022-10-31T16:41:38;14.50;99.90
11573;DHT22;5842;52.426;4.886;2022-10-31T16:44:17;14.50;99.90
11573;DHT22;5842;52.426;4.886;2022-10-31T16:46:45;14.50;99.90
11573;DHT22;5842;52.426;4.886;2022-10-31T16:49:12;14.50;99.90
11573;DHT22;5842;52.426;4.886;2022-10-31T16:51:42;14.50;99.90
11573;DHT22;5842;52.426;4.886;2022-10-31T16:54:09;14.40;99.90